sensor_id;sensor_type;location;lat;lon;timestamp;P1;durP1;ratioP1;P2;durP2;ratioP2
27365;SDS011;14837;57.148;-2.144;2022-12-07T00:01:43;7.03;;;1.60;;
27365;SDS011;14837;57.148;-2.144;2022-12-07T00:04:11;7.72;;;1.52;;
27365;SDS011;14837;57.148;-2.144;2022-12-07T00:06:41;10.20;;;2.00;;
27365;SDS011;14837;57.148;-2.144;2022-12-07T00:09:12;7.65;;;1.67;;
27365;SDS011;14837;57.148;-2.144;2022-12-07T00:11:39;5.32;;;1.38;;
27365;SDS011;14837;57.148;-2.144;2022-12-07T00:14:07;8.15;;;1.70;;
27365;SDS011;14837;57.148;-2.144;2022-12-07T00:16:34;8.20;;;1.80;;
27365;SDS011;14837;57.148;-2.144;2022-12-07T00:19:02;6.50;;;1.98;;
27365;SDS011;14837;57.148;-2.144;2022-12-07T00:21:29;7.88;;;2.83;;
27365;SDS011;14837;57.148;-2.144;2022-12-07T00:23:56;6.30;;;1.90;;
27365;SDS011;14837;57.148;-2.144;2022-12-07T00:26:24;7.05;;;2.90;;
27365;SDS011;14837;57.148;-2.144;2022-12-07T00:28:51;6.00;;;2.78;;
27365;SDS011;14837;57.148;-2.144;2022-12-07T00:31:19;16.63;;;3.38;;
27365;SDS011;14837;57.148;-2.144;2022-12-07T00:33:47;5.82;;;1.60;;
27365;SDS011;14837;57.148;-2.144;2022-12-07T00:36:14;5.65;;;1.75;;
27365;SDS011;14837;57.148;-2.144;2022-12-07T00:38:41;5.03;;;1.88;;
27365;SDS011;14837;57.148;-2.144;2022-12-07T00:41:14;9.52;;;2.08;;
27365;SDS011;14837;57.148;-2.144;2022-12-07T00:46:08;6.47;;;1.80;;
27365;SDS011;14837;57.148;-2.144;2022-12-07T00:48:34;4.22;;;1.25;;
27365;SDS011;14837;57.148;-2.144;2022-12-07T00:51:01;8.23;;;2.05;;
27365;SDS011;14837;57.148;-2.144;2022-12-07T00:53:28;3.63;;;1.33;;
27365;SDS011;14837;57.148;-2.144;2022-12-07T00:55:56;9.20;;;1.83;;
27365;SDS011;14837;57.148;-2.144;2022-12-07T00:58:23;6.07;;;2.55;;
27365;SDS011;14837;57.148;-2.144;2022-12-07T01:00:50;9.35;;;2.40;;
27365;SDS011;14837;57.148;-2.144;2022-12-07T01:03:16;4.70;;;1.90;;
27365;SDS011;14837;57.148;-2.144;2022-12-07T01:05:53;8.90;;;2.05;;
27365;SDS011;14837;57.148;-2.144;2022-12-07T01:08:20;6.43;;;2.05;;
27365;SDS011;14837;57.148;-2.144;2022-12-07T01:10:47;7.78;;;1.95;;
27365;SDS011;14837;57.148;-2.144;2022-12-07T01:13:14;6.40;;;1.58;;
27365;SDS011;14837;57.148;-2.144;2022-12-07T01:15:41;6.68;;;1.83;;
27365;SDS011;14837;57.148;-2.144;2022-12-07T01:18:08;4.50;;;1.50;;
27365;SDS011;14837;57.148;-2.144;2022-12-07T01:20:35;8.25;;;1.88;;
27365;SDS011;14837;57.148;-2.144;2022-12-07T01:23:01;6.50;;;1.83;;
27365;SDS011;14837;57.148;-2.144;2022-12-07T01:25:28;9.98;;;1.73;;
27365;SDS011;14837;57.148;-2.144;2022-12-07T01:27:55;7.28;;;1.98;;
27365;SDS011;14837;57.148;-2.144;2022-12-07T01:30:21;5.47;;;1.60;;
27365;SDS011;14837;57.148;-2.144;2022-12-07T01:32:48;5.30;;;1.88;;
27365;SDS011;14837;57.148;-2.144;2022-12-07T01:35:14;5.45;;;1.08;;
27365;SDS011;14837;57.148;-2.144;2022-12-07T01:37:41;7.60;;;3.53;;
27365;SDS011;14837;57.148;-2.144;2022-12-07T01:40:07;6.47;;;1.92;;
27365;SDS011;14837;57.148;-2.144;2022-12-07T01:42:34;9.60;;;1.88;;
27365;SDS011;14837;57.148;-2.144;2022-12-07T01:47:47;8.30;;;1.83;;
27365;SDS011;14837;57.148;-2.144;2022-12-07T01:50:16;8.40;;;1.70;;
27365;SDS011;14837;57.148;-2.144;2022-12-07T01:52:43;3.63;;;1.70;;
27365;SDS011;14837;57.148;-2.144;2022-12-07T01:55:12;8.32;;;1.95;;
27365;SDS011;14837;57.148;-2.144;2022-12-07T01:57:43;9.18;;;2.45;;
27365;SDS011;14837;57.148;-2.144;2022-12-07T02:00:11;13.48;;;2.55;;
27365;SDS011;14837;57.148;-2.144;2022-12-07T02:02:43;12.63;;;2.95;;
27365;SDS011;14837;57.148;-2.144;2022-12-07T02:07:38;8.70;;;1.85;;
27365;SDS011;14837;57.148;-2.144;2022-12-07T02:10:12;5.38;;;1.88;;
27365;SDS011;14837;57.148;-2.144;2022-12-07T02:12:39;9.20;;;2.17;;
27365;SDS011;14837;57.148;-2.144;2022-12-07T02:15:05;14.98;;;2.47;;
27365;SDS011;14837;57.148;-2.144;2022-12-07T02:17:36;9.57;;;2.15;;
27365;SDS011;14837;57.148;-2.144;2022-12-07T02:21:08;7.13;;;2.50;;
27365;SDS011;14837;57.148;-2.144;2022-12-07T02:23:12;9.73;;;2.00;;
27365;SDS011;14837;57.148;-2.144;2022-12-07T02:28:31;6.85;;;2.13;;
27365;SDS011;14837;57.148;-2.144;2022-12-07T02:31:08;6.03;;;1.98;;
27365;SDS011;14837;57.148;-2.144;2022-12-07T02:33:40;9.85;;;1.60;;
27365;SDS011;14837;57.148;-2.144;2022-12-07T02:36:10;12.15;;;2.33;;
27365;SDS011;14837;57.148;-2.144;2022-12-07T02:38:52;8.90;;;1.95;;
27365;SDS011;14837;57.148;-2.144;2022-12-07T02:41:23;7.03;;;1.90;;
27365;SDS011;14837;57.148;-2.144;2022-12-07T02:43:53;7.20;;;2.85;;
27365;SDS011;14837;57.148;-2.144;2022-12-07T02:46:22;8.93;;;1.77;;
27365;SDS011;14837;57.148;-2.144;2022-12-07T02:48:50;6.25;;;1.90;;
27365;SDS011;14837;57.148;-2.144;2022-12-07T02:51:17;13.98;;;2.78;;
27365;SDS011;14837;57.148;-2.144;2022-12-07T02:53:44;9.50;;;3.05;;
27365;SDS011;14837;57.148;-2.144;2022-12-07T02:58:53;4.55;;;1.83;;
27365;SDS011;14837;57.148;-2.144;2022-12-07T03:01:38;4.28;;;1.98;;
27365;SDS011;14837;57.148;-2.144;2022-12-07T03:06:53;7.68;;;1.48;;
27365;SDS011;14837;57.148;-2.144;2022-12-07T03:09:26;7.93;;;1.77;;
27365;SDS011;14837;57.148;-2.144;2022-12-07T03:12:01;9.15;;;2.38;;
27365;SDS011;14837;57.148;-2.144;2022-12-07T03:14:30;9.10;;;2.13;;
27365;SDS011;14837;57.148;-2.144;2022-12-07T03:17:08;7.75;;;1.77;;
27365;SDS011;14837;57.148;-2.144;2022-12-07T03:19:37;12.18;;;1.98;;
27365;SDS011;14837;57.148;-2.144;2022-12-07T03:22:05;10.40;;;1.88;;
27365;SDS011;14837;57.148;-2.144;2022-12-07T03:24:35;6.78;;;1.88;;
27365;SDS011;14837;57.148;-2.144;2022-12-07T03:27:13;8.48;;;1.85;;
27365;SDS011;14837;57.148;-2.144;2022-12-07T03:29:43;7.75;;;2.42;;
27365;SDS011;14837;57.148;-2.144;2022-12-07T03:32:13;7.38;;;1.80;;
27365;SDS011;14837;57.148;-2.144;2022-12-07T03:37:45;7.50;;;2.13;;
27365;SDS011;14837;57.148;-2.144;2022-12-07T03:42:42;5.55;;;1.48;;
27365;SDS011;14837;57.148;-2.144;2022-12-07T03:45:09;10.88;;;1.92;;
27365;SDS011;14837;57.148;-2.144;2022-12-07T03:50:46;12.60;;;2.20;;
27365;SDS011;14837;57.148;-2.144;2022-12-07T03:53:18;7.20;;;1.95;;
27365;SDS011;14837;57.148;-2.144;2022-12-07T03:55:45;6.10;;;1.77;;
27365;SDS011;14837;57.148;-2.144;2022-12-07T03:58:14;7.80;;;2.38;;
27365;SDS011;14837;57.148;-2.144;2022-12-07T04:00:42;7.55;;;2.15;;
27365;SDS011;14837;57.148;-2.144;2022-12-07T04:03:09;9.45;;;2.15;;
27365;SDS011;14837;57.148;-2.144;2022-12-07T04:05:36;6.30;;;1.40;;
27365;SDS011;14837;57.148;-2.144;2022-12-07T04:08:03;6.68;;;1.40;;
27365;SDS011;14837;57.148;-2.144;2022-12-07T04:10:29;5.63;;;2.45;;
27365;SDS011;14837;57.148;-2.144;2022-12-07T04:12:56;5.03;;;1.65;;
27365;SDS011;14837;57.148;-2.144;2022-12-07T04:15:22;7.43;;;1.63;;
27365;SDS011;14837;57.148;-2.144;2022-12-07T04:17:49;10.85;;;1.55;;
27365;SDS011;14837;57.148;-2.144;2022-12-07T04:20:15;12.77;;;2.30;;
27365;SDS011;14837;57.148;-2.144;2022-12-07T04:22:41;10.57;;;1.80;;
27365;SDS011;14837;57.148;-2.144;2022-12-07T04:25:08;3.70;;;2.10;;
27365;SDS011;14837;57.148;-2.144;2022-12-07T04:27:35;4.18;;;1.42;;
27365;SDS011;14837;57.148;-2.144;2022-12-07T04:30:01;3.92;;;1.40;;
27365;SDS011;14837;57.148;-2.144;2022-12-07T04:32:28;7.60;;;2.05;;
27365;SDS011;14837;57.148;-2.144;2022-12-07T04:34:55;5.90;;;1.35;;
27365;SDS011;14837;57.148;-2.144;2022-12-07T04:37:22;5.50;;;1.33;;
27365;SDS011;14837;57.148;-2.144;2022-12-07T04:39:48;10.07;;;1.15;;
27365;SDS011;14837;57.148;-2.144;2022-12-07T04:42:15;7.78;;;1.45;;
27365;SDS011;14837;57.148;-2.144;2022-12-07T04:44:41;12.93;;;2.13;;
27365;SDS011;14837;57.148;-2.144;2022-12-07T04:47:08;6.35;;;1.30;;
27365;SDS011;14837;57.148;-2.144;2022-12-07T04:49:34;7.13;;;2.00;;
27365;SDS011;14837;57.148;-2.144;2022-12-07T04:52:01;9.32;;;1.65;;
27365;SDS011;14837;57.148;-2.144;2022-12-07T04:54:27;8.90;;;2.03;;
27365;SDS011;14837;57.148;-2.144;2022-12-07T04:56:54;10.73;;;2.00;;
27365;SDS011;14837;57.148;-2.144;2022-12-07T04:59:20;10.52;;;1.90;;
27365;SDS011;14837;57.148;-2.144;2022-12-07T05:01:47;3.97;;;2.65;;
27365;SDS011;14837;57.148;-2.144;2022-12-07T05:04:14;6.82;;;1.90;;
27365;SDS011;14837;57.148;-2.144;2022-12-07T05:06:42;5.65;;;2.42;;
27365;SDS011;14837;57.148;-2.144;2022-12-07T05:09:08;5.95;;;1.40;;
27365;SDS011;14837;57.148;-2.144;2022-12-07T05:11:35;10.02;;;2.53;;
27365;SDS011;14837;57.148;-2.144;2022-12-07T05:14:22;5.45;;;1.30;;
27365;SDS011;14837;57.148;-2.144;2022-12-07T05:16:49;4.82;;;1.02;;
27365;SDS011;14837;57.148;-2.144;2022-12-07T05:19:17;6.35;;;1.10;;
27365;SDS011;14837;57.148;-2.144;2022-12-07T05:21:44;6.97;;;1.88;;
27365;SDS011;14837;57.148;-2.144;2022-12-07T05:24:11;3.30;;;0.88;;
27365;SDS011;14837;57.148;-2.144;2022-12-07T05:26:38;2.88;;;1.63;;
27365;SDS011;14837;57.148;-2.144;2022-12-07T05:29:04;4.30;;;1.10;;
27365;SDS011;14837;57.148;-2.144;2022-12-07T05:31:31;5.30;;;1.38;;
27365;SDS011;14837;57.148;-2.144;2022-12-07T05:33:57;5.55;;;1.42;;
27365;SDS011;14837;57.148;-2.144;2022-12-07T05:36:24;6.57;;;1.55;;
27365;SDS011;14837;57.148;-2.144;2022-12-07T05:38:51;2.53;;;1.25;;
27365;SDS011;14837;57.148;-2.144;2022-12-07T05:41:18;8.45;;;1.60;;
27365;SDS011;14837;57.148;-2.144;2022-12-07T05:44:03;2.42;;;0.90;;
27365;SDS011;14837;57.148;-2.144;2022-12-07T05:46:30;5.50;;;3.17;;
27365;SDS011;14837;57.148;-2.144;2022-12-07T05:48:56;4.20;;;1.35;;
27365;SDS011;14837;57.148;-2.144;2022-12-07T05:51:23;3.72;;;1.38;;
27365;SDS011;14837;57.148;-2.144;2022-12-07T05:53:50;5.47;;;1.25;;
27365;SDS011;14837;57.148;-2.144;2022-12-07T05:56:16;3.60;;;1.10;;
27365;SDS011;14837;57.148;-2.144;2022-12-07T05:58:43;8.10;;;1.73;;
27365;SDS011;14837;57.148;-2.144;2022-12-07T06:01:28;8.65;;;1.80;;
27365;SDS011;14837;57.148;-2.144;2022-12-07T06:03:54;7.40;;;1.73;;
27365;SDS011;14837;57.148;-2.144;2022-12-07T06:06:21;8.55;;;1.60;;
27365;SDS011;14837;57.148;-2.144;2022-12-07T06:08:47;6.85;;;1.20;;
27365;SDS011;14837;57.148;-2.144;2022-12-07T06:11:14;6.70;;;2.17;;
27365;SDS011;14837;57.148;-2.144;2022-12-07T06:13:59;5.45;;;1.25;;
27365;SDS011;14837;57.148;-2.144;2022-12-07T06:16:26;3.63;;;1.23;;
27365;SDS011;14837;57.148;-2.144;2022-12-07T06:18:52;8.20;;;1.77;;
27365;SDS011;14837;57.148;-2.144;2022-12-07T06:21:19;6.47;;;1.10;;
27365;SDS011;14837;57.148;-2.144;2022-12-07T06:23:45;9.60;;;1.80;;
27365;SDS011;14837;57.148;-2.144;2022-12-07T06:26:14;4.82;;;1.38;;
27365;SDS011;14837;57.148;-2.144;2022-12-07T06:28:40;7.00;;;1.23;;
27365;SDS011;14837;57.148;-2.144;2022-12-07T06:31:07;5.22;;;1.92;;
27365;SDS011;14837;57.148;-2.144;2022-12-07T06:33:39;3.40;;;1.15;;
27365;SDS011;14837;57.148;-2.144;2022-12-07T06:36:06;7.82;;;1.83;;
27365;SDS011;14837;57.148;-2.144;2022-12-07T06:38:33;5.43;;;1.25;;
27365;SDS011;14837;57.148;-2.144;2022-12-07T06:40:59;6.30;;;1.75;;
27365;SDS011;14837;57.148;-2.144;2022-12-07T06:43:26;9.77;;;1.90;;
27365;SDS011;14837;57.148;-2.144;2022-12-07T06:45:53;7.80;;;1.27;;
27365;SDS011;14837;57.148;-2.144;2022-12-07T06:48:20;7.60;;;1.77;;
27365;SDS011;14837;57.148;-2.144;2022-12-07T06:50:47;4.45;;;1.40;;
27365;SDS011;14837;57.148;-2.144;2022-12-07T06:53:20;4.53;;;1.55;;
27365;SDS011;14837;57.148;-2.144;2022-12-07T06:55:47;6.95;;;1.88;;
27365;SDS011;14837;57.148;-2.144;2022-12-07T06:58:13;7.70;;;3.25;;
27365;SDS011;14837;57.148;-2.144;2022-12-07T07:00:40;10.48;;;1.80;;
27365;SDS011;14837;57.148;-2.144;2022-12-07T07:03:06;7.78;;;1.73;;
27365;SDS011;14837;57.148;-2.144;2022-12-07T07:05:33;5.38;;;1.80;;
27365;SDS011;14837;57.148;-2.144;2022-12-07T07:08:00;7.30;;;1.58;;
27365;SDS011;14837;57.148;-2.144;2022-12-07T07:10:46;7.88;;;1.98;;
27365;SDS011;14837;57.148;-2.144;2022-12-07T07:13:13;8.60;;;3.67;;
27365;SDS011;14837;57.148;-2.144;2022-12-07T07:15:39;8.80;;;3.40;;
27365;SDS011;14837;57.148;-2.144;2022-12-07T07:18:06;4.85;;;1.80;;
27365;SDS011;14837;57.148;-2.144;2022-12-07T07:20:33;5.47;;;1.85;;
27365;SDS011;14837;57.148;-2.144;2022-12-07T07:22:59;4.90;;;1.55;;
27365;SDS011;14837;57.148;-2.144;2022-12-07T07:25:26;3.83;;;1.58;;
27365;SDS011;14837;57.148;-2.144;2022-12-07T07:27:52;4.55;;;1.50;;
27365;SDS011;14837;57.148;-2.144;2022-12-07T07:30:19;5.63;;;1.35;;
27365;SDS011;14837;57.148;-2.144;2022-12-07T07:32:45;3.55;;;1.27;;
27365;SDS011;14837;57.148;-2.144;2022-12-07T07:35:12;5.07;;;1.20;;
27365;SDS011;14837;57.148;-2.144;2022-12-07T07:37:40;3.83;;;1.30;;
27365;SDS011;14837;57.148;-2.144;2022-12-07T07:40:08;4.30;;;1.27;;
27365;SDS011;14837;57.148;-2.144;2022-12-07T07:42:34;3.65;;;1.05;;
27365;SDS011;14837;57.148;-2.144;2022-12-07T07:45:01;6.90;;;1.17;;
27365;SDS011;14837;57.148;-2.144;2022-12-07T07:47:27;8.25;;;1.45;;
27365;SDS011;14837;57.148;-2.144;2022-12-07T07:49:55;4.97;;;2.05;;
27365;SDS011;14837;57.148;-2.144;2022-12-07T07:52:25;7.95;;;1.60;;
27365;SDS011;14837;57.148;-2.144;2022-12-07T07:54:52;8.85;;;1.63;;
27365;SDS011;14837;57.148;-2.144;2022-12-07T07:57:19;4.68;;;1.67;;
27365;SDS011;14837;57.148;-2.144;2022-12-07T07:59:45;7.30;;;2.00;;
27365;SDS011;14837;57.148;-2.144;2022-12-07T08:02:13;1.58;;;0.88;;
27365;SDS011;14837;57.148;-2.144;2022-12-07T08:04:40;6.95;;;1.65;;
27365;SDS011;14837;57.148;-2.144;2022-12-07T08:07:06;4.55;;;1.88;;
27365;SDS011;14837;57.148;-2.144;2022-12-07T08:09:33;4.32;;;1.55;;
27365;SDS011;14837;57.148;-2.144;2022-12-07T08:11:59;5.35;;;1.30;;
27365;SDS011;14837;57.148;-2.144;2022-12-07T08:14:26;3.35;;;1.23;;
27365;SDS011;14837;57.148;-2.144;2022-12-07T08:16:54;5.30;;;1.50;;
27365;SDS011;14837;57.148;-2.144;2022-12-07T08:19:21;5.10;;;1.20;;
27365;SDS011;14837;57.148;-2.144;2022-12-07T08:21:48;4.30;;;1.25;;
27365;SDS011;14837;57.148;-2.144;2022-12-07T08:24:14;5.90;;;1.48;;
27365;SDS011;14837;57.148;-2.144;2022-12-07T08:26:41;7.15;;;1.67;;
27365;SDS011;14837;57.148;-2.144;2022-12-07T08:29:07;3.88;;;1.27;;
27365;SDS011;14837;57.148;-2.144;2022-12-07T08:31:34;2.95;;;1.40;;
27365;SDS011;14837;57.148;-2.144;2022-12-07T08:34:01;3.78;;;1.25;;
27365;SDS011;14837;57.148;-2.144;2022-12-07T08:36:27;6.22;;;1.50;;
27365;SDS011;14837;57.148;-2.144;2022-12-07T08:38:54;3.78;;;1.60;;
27365;SDS011;14837;57.148;-2.144;2022-12-07T08:41:40;5.40;;;1.40;;
27365;SDS011;14837;57.148;-2.144;2022-12-07T08:44:06;7.63;;;1.70;;
27365;SDS011;14837;57.148;-2.144;2022-12-07T08:46:37;3.53;;;1.33;;
27365;SDS011;14837;57.148;-2.144;2022-12-07T08:49:13;3.75;;;1.10;;
27365;SDS011;14837;57.148;-2.144;2022-12-07T08:51:40;5.72;;;1.92;;
27365;SDS011;14837;57.148;-2.144;2022-12-07T08:54:14;4.03;;;2.03;;
27365;SDS011;14837;57.148;-2.144;2022-12-07T08:56:41;3.42;;;1.27;;
27365;SDS011;14837;57.148;-2.144;2022-12-07T08:59:08;5.13;;;1.42;;
27365;SDS011;14837;57.148;-2.144;2022-12-07T09:01:34;4.75;;;1.60;;
27365;SDS011;14837;57.148;-2.144;2022-12-07T09:04:01;8.45;;;3.17;;
27365;SDS011;14837;57.148;-2.144;2022-12-07T09:06:27;9.88;;;2.90;;
27365;SDS011;14837;57.148;-2.144;2022-12-07T09:08:55;9.50;;;2.03;;
27365;SDS011;14837;57.148;-2.144;2022-12-07T09:11:24;6.25;;;1.63;;
27365;SDS011;14837;57.148;-2.144;2022-12-07T09:13:54;5.13;;;1.52;;
27365;SDS011;14837;57.148;-2.144;2022-12-07T09:16:21;4.40;;;1.35;;
27365;SDS011;14837;57.148;-2.144;2022-12-07T09:18:48;4.10;;;2.00;;
27365;SDS011;14837;57.148;-2.144;2022-12-07T09:21:14;7.80;;;3.22;;
27365;SDS011;14837;57.148;-2.144;2022-12-07T09:23:41;8.68;;;1.92;;
27365;SDS011;14837;57.148;-2.144;2022-12-07T09:26:08;4.97;;;1.98;;
27365;SDS011;14837;57.148;-2.144;2022-12-07T09:28:36;9.35;;;2.70;;
27365;SDS011;14837;57.148;-2.144;2022-12-07T09:31:03;6.10;;;2.20;;
27365;SDS011;14837;57.148;-2.144;2022-12-07T09:33:53;5.72;;;1.83;;
27365;SDS011;14837;57.148;-2.144;2022-12-07T09:36:20;5.75;;;1.95;;
27365;SDS011;14837;57.148;-2.144;2022-12-07T09:38:47;6.78;;;1.85;;
27365;SDS011;14837;57.148;-2.144;2022-12-07T09:41:13;4.72;;;1.38;;
27365;SDS011;14837;57.148;-2.144;2022-12-07T09:43:41;4.93;;;1.85;;
27365;SDS011;14837;57.148;-2.144;2022-12-07T09:46:09;5.57;;;2.00;;
27365;SDS011;14837;57.148;-2.144;2022-12-07T09:48:38;5.50;;;1.73;;
27365;SDS011;14837;57.148;-2.144;2022-12-07T09:51:18;8.38;;;1.80;;
27365;SDS011;14837;57.148;-2.144;2022-12-07T09:53:50;7.60;;;2.80;;
27365;SDS011;14837;57.148;-2.144;2022-12-07T09:56:17;9.48;;;2.03;;
27365;SDS011;14837;57.148;-2.144;2022-12-07T09:58:44;10.52;;;2.13;;
27365;SDS011;14837;57.148;-2.144;2022-12-07T10:03:39;1.85;;;1.17;;
27365;SDS011;14837;57.148;-2.144;2022-12-07T10:06:06;2.47;;;1.30;;
27365;SDS011;14837;57.148;-2.144;2022-12-07T10:08:32;7.60;;;1.98;;
27365;SDS011;14837;57.148;-2.144;2022-12-07T10:11:02;9.23;;;2.47;;
27365;SDS011;14837;57.148;-2.144;2022-12-07T10:14:09;8.93;;;1.70;;
27365;SDS011;14837;57.148;-2.144;2022-12-07T10:18:50;9.38;;;1.30;;
27365;SDS011;14837;57.148;-2.144;2022-12-07T10:21:17;9.90;;;1.73;;
27365;SDS011;14837;57.148;-2.144;2022-12-07T10:26:36;7.03;;;1.67;;
27365;SDS011;14837;57.148;-2.144;2022-12-07T10:29:27;4.57;;;1.63;;
27365;SDS011;14837;57.148;-2.144;2022-12-07T10:31:59;3.10;;;1.33;;
27365;SDS011;14837;57.148;-2.144;2022-12-07T10:34:27;5.85;;;1.55;;
27365;SDS011;14837;57.148;-2.144;2022-12-07T10:37:18;8.35;;;2.42;;
27365;SDS011;14837;57.148;-2.144;2022-12-07T10:39:43;3.42;;;1.45;;
27365;SDS011;14837;57.148;-2.144;2022-12-07T10:42:26;5.38;;;1.50;;
27365;SDS011;14837;57.148;-2.144;2022-12-07T10:53:12;7.72;;;1.80;;
27365;SDS011;14837;57.148;-2.144;2022-12-07T10:55:56;3.50;;;1.45;;
27365;SDS011;14837;57.148;-2.144;2022-12-07T11:01:08;2.08;;;1.27;;
27365;SDS011;14837;57.148;-2.144;2022-12-07T11:11:19;7.18;;;1.90;;
27365;SDS011;14837;57.148;-2.144;2022-12-07T11:18:57;6.55;;;1.52;;
27365;SDS011;14837;57.148;-2.144;2022-12-07T11:24:15;5.85;;;1.67;;
27365;SDS011;14837;57.148;-2.144;2022-12-07T11:37:37;7.20;;;2.80;;
27365;SDS011;14837;57.148;-2.144;2022-12-07T11:45:59;11.38;;;2.35;;
27365;SDS011;14837;57.148;-2.144;2022-12-07T11:50:57;8.02;;;2.55;;
27365;SDS011;14837;57.148;-2.144;2022-12-07T12:03:44;4.93;;;1.40;;
27365;SDS011;14837;57.148;-2.144;2022-12-07T12:06:18;5.65;;;1.65;;
27365;SDS011;14837;57.148;-2.144;2022-12-07T12:14:56;2.85;;;1.33;;
27365;SDS011;14837;57.148;-2.144;2022-12-07T12:17:31;7.35;;;2.35;;
27365;SDS011;14837;57.148;-2.144;2022-12-07T12:22:42;9.73;;;1.90;;
27365;SDS011;14837;57.148;-2.144;2022-12-07T12:25:15;6.22;;;1.70;;
27365;SDS011;14837;57.148;-2.144;2022-12-07T12:27:46;6.03;;;1.73;;
27365;SDS011;14837;57.148;-2.144;2022-12-07T12:30:29;7.57;;;1.52;;
27365;SDS011;14837;57.148;-2.144;2022-12-07T12:35:41;5.70;;;1.40;;
27365;SDS011;14837;57.148;-2.144;2022-12-07T12:38:33;9.82;;;2.00;;
27365;SDS011;14837;57.148;-2.144;2022-12-07T12:40:56;6.20;;;1.52;;
27365;SDS011;14837;57.148;-2.144;2022-12-07T12:46:35;4.13;;;1.30;;
27365;SDS011;14837;57.148;-2.144;2022-12-07T12:51:41;9.98;;;1.92;;
27365;SDS011;14837;57.148;-2.144;2022-12-07T12:54:15;6.88;;;1.55;;
27365;SDS011;14837;57.148;-2.144;2022-12-07T13:01:44;3.83;;;1.52;;
27365;SDS011;14837;57.148;-2.144;2022-12-07T13:04:24;9.13;;;2.63;;
27365;SDS011;14837;57.148;-2.144;2022-12-07T13:06:51;4.93;;;1.48;;
27365;SDS011;14837;57.148;-2.144;2022-12-07T13:09:25;9.30;;;2.25;;
27365;SDS011;14837;57.148;-2.144;2022-12-07T13:12:12;11.50;;;1.85;;
27365;SDS011;14837;57.148;-2.144;2022-12-07T13:14:53;5.15;;;2.45;;
27365;SDS011;14837;57.148;-2.144;2022-12-07T13:20:00;3.70;;;1.20;;
27365;SDS011;14837;57.148;-2.144;2022-12-07T13:24:57;5.10;;;1.42;;
27365;SDS011;14837;57.148;-2.144;2022-12-07T13:27:26;6.07;;;1.48;;
27365;SDS011;14837;57.148;-2.144;2022-12-07T13:29:54;4.57;;;1.60;;
27365;SDS011;14837;57.148;-2.144;2022-12-07T13:32:26;4.10;;;1.23;;
27365;SDS011;14837;57.148;-2.144;2022-12-07T13:34:53;4.38;;;1.15;;
27365;SDS011;14837;57.148;-2.144;2022-12-07T13:37:32;2.50;;;0.90;;
27365;SDS011;14837;57.148;-2.144;2022-12-07T13:40:19;2.47;;;1.00;;
27365;SDS011;14837;57.148;-2.144;2022-12-07T13:42:46;2.47;;;1.35;;
27365;SDS011;14837;57.148;-2.144;2022-12-07T13:45:29;1.35;;;0.73;;
27365;SDS011;14837;57.148;-2.144;2022-12-07T13:48:24;5.10;;;0.93;;
27365;SDS011;14837;57.148;-2.144;2022-12-07T13:50:55;4.78;;;1.35;;
27365;SDS011;14837;57.148;-2.144;2022-12-07T13:53:22;2.88;;;0.95;;
27365;SDS011;14837;57.148;-2.144;2022-12-07T13:55:48;2.70;;;1.23;;
27365;SDS011;14837;57.148;-2.144;2022-12-07T13:58:20;3.08;;;0.82;;
27365;SDS011;14837;57.148;-2.144;2022-12-07T14:00:47;2.25;;;1.10;;
27365;SDS011;14837;57.148;-2.144;2022-12-07T14:05:41;3.13;;;1.23;;
27365;SDS011;14837;57.148;-2.144;2022-12-07T14:15:51;7.68;;;2.03;;
27365;SDS011;14837;57.148;-2.144;2022-12-07T14:18:24;7.43;;;1.55;;
27365;SDS011;14837;57.148;-2.144;2022-12-07T14:20:51;4.57;;;1.55;;
27365;SDS011;14837;57.148;-2.144;2022-12-07T14:23:28;2.47;;;1.15;;
27365;SDS011;14837;57.148;-2.144;2022-12-07T14:26:03;3.72;;;1.05;;
27365;SDS011;14837;57.148;-2.144;2022-12-07T14:28:31;2.60;;;1.13;;
27365;SDS011;14837;57.148;-2.144;2022-12-07T14:30:58;2.13;;;1.00;;
27365;SDS011;14837;57.148;-2.144;2022-12-07T14:33:25;6.32;;;1.13;;
27365;SDS011;14837;57.148;-2.144;2022-12-07T14:35:52;3.22;;;1.02;;
27365;SDS011;14837;57.148;-2.144;2022-12-07T14:38:21;2.08;;;0.90;;
27365;SDS011;14837;57.148;-2.144;2022-12-07T14:40:48;2.53;;;0.82;;
27365;SDS011;14837;57.148;-2.144;2022-12-07T14:43:15;3.25;;;1.00;;
27365;SDS011;14837;57.148;-2.144;2022-12-07T14:45:42;1.67;;;0.80;;
27365;SDS011;14837;57.148;-2.144;2022-12-07T14:48:13;1.15;;;0.50;;
27365;SDS011;14837;57.148;-2.144;2022-12-07T14:51:00;2.88;;;0.88;;
27365;SDS011;14837;57.148;-2.144;2022-12-07T14:53:48;1.45;;;0.65;;
27365;SDS011;14837;57.148;-2.144;2022-12-07T14:56:22;4.00;;;0.98;;
27365;SDS011;14837;57.148;-2.144;2022-12-07T14:58:49;0.40;;;0.40;;
27365;SDS011;14837;57.148;-2.144;2022-12-07T15:01:15;2.78;;;0.80;;
27365;SDS011;14837;57.148;-2.144;2022-12-07T15:03:42;1.17;;;0.77;;
27365;SDS011;14837;57.148;-2.144;2022-12-07T15:06:10;2.25;;;0.60;;
27365;SDS011;14837;57.148;-2.144;2022-12-07T15:08:39;0.88;;;0.73;;
27365;SDS011;14837;57.148;-2.144;2022-12-07T15:11:05;1.05;;;0.65;;
27365;SDS011;14837;57.148;-2.144;2022-12-07T15:13:32;2.13;;;1.00;;
27365;SDS011;14837;57.148;-2.144;2022-12-07T15:16:18;2.75;;;0.70;;
27365;SDS011;14837;57.148;-2.144;2022-12-07T15:18:46;1.80;;;0.73;;
27365;SDS011;14837;57.148;-2.144;2022-12-07T15:21:32;1.23;;;0.70;;
27365;SDS011;14837;57.148;-2.144;2022-12-07T15:23:59;1.20;;;1.10;;
27365;SDS011;14837;57.148;-2.144;2022-12-07T15:26:25;4.35;;;1.05;;
27365;SDS011;14837;57.148;-2.144;2022-12-07T15:28:53;3.40;;;2.83;;
27365;SDS011;14837;57.148;-2.144;2022-12-07T15:31:20;1.98;;;1.27;;
27365;SDS011;14837;57.148;-2.144;2022-12-07T15:34:06;2.90;;;1.52;;
27365;SDS011;14837;57.148;-2.144;2022-12-07T15:36:33;2.10;;;1.10;;
27365;SDS011;14837;57.148;-2.144;2022-12-07T15:39:00;1.95;;;1.60;;
27365;SDS011;14837;57.148;-2.144;2022-12-07T15:41:42;3.47;;;0.98;;
27365;SDS011;14837;57.148;-2.144;2022-12-07T15:44:12;5.72;;;1.52;;
27365;SDS011;14837;57.148;-2.144;2022-12-07T15:46:58;3.00;;;1.42;;
27365;SDS011;14837;57.148;-2.144;2022-12-07T15:49:25;2.13;;;1.17;;
27365;SDS011;14837;57.148;-2.144;2022-12-07T15:51:51;1.63;;;1.20;;
27365;SDS011;14837;57.148;-2.144;2022-12-07T15:54:25;4.70;;;1.63;;
27365;SDS011;14837;57.148;-2.144;2022-12-07T15:56:52;3.17;;;1.13;;
27365;SDS011;14837;57.148;-2.144;2022-12-07T15:59:19;4.75;;;1.95;;
27365;SDS011;14837;57.148;-2.144;2022-12-07T16:01:45;5.05;;;2.35;;
27365;SDS011;14837;57.148;-2.144;2022-12-07T16:04:12;3.78;;;1.15;;
27365;SDS011;14837;57.148;-2.144;2022-12-07T16:06:39;6.40;;;1.30;;
27365;SDS011;14837;57.148;-2.144;2022-12-07T16:09:05;3.88;;;1.63;;
27365;SDS011;14837;57.148;-2.144;2022-12-07T16:11:32;2.75;;;1.80;;
27365;SDS011;14837;57.148;-2.144;2022-12-07T16:13:59;15.73;;;10.02;;
27365;SDS011;14837;57.148;-2.144;2022-12-07T16:16:26;28.08;;;15.95;;
27365;SDS011;14837;57.148;-2.144;2022-12-07T16:18:53;16.20;;;11.82;;
27365;SDS011;14837;57.148;-2.144;2022-12-07T16:21:20;8.52;;;3.60;;
27365;SDS011;14837;57.148;-2.144;2022-12-07T16:23:50;2.72;;;1.52;;
27365;SDS011;14837;57.148;-2.144;2022-12-07T16:26:18;6.10;;;2.35;;
27365;SDS011;14837;57.148;-2.144;2022-12-07T16:28:47;4.95;;;2.20;;
27365;SDS011;14837;57.148;-2.144;2022-12-07T16:31:15;5.85;;;1.80;;
27365;SDS011;14837;57.148;-2.144;2022-12-07T16:33:42;7.72;;;1.90;;
27365;SDS011;14837;57.148;-2.144;2022-12-07T16:36:09;2.70;;;1.63;;
27365;SDS011;14837;57.148;-2.144;2022-12-07T16:38:37;2.40;;;1.33;;
27365;SDS011;14837;57.148;-2.144;2022-12-07T16:41:04;8.77;;;1.40;;
27365;SDS011;14837;57.148;-2.144;2022-12-07T16:43:32;4.85;;;1.70;;
27365;SDS011;14837;57.148;-2.144;2022-12-07T16:45:58;5.03;;;2.05;;
27365;SDS011;14837;57.148;-2.144;2022-12-07T16:48:25;1.90;;;1.30;;
27365;SDS011;14837;57.148;-2.144;2022-12-07T16:50:52;2.97;;;1.58;;
27365;SDS011;14837;57.148;-2.144;2022-12-07T16:53:22;4.72;;;2.47;;